Time;durP1;ratioP1;P1;durP2;ratioP2;P2;SDS_P1;SDS_P2;PMS_P1;PMS_P2;Temp;Humidity;BMP_temperature;BMP_pressure;BME280_temperature;BME280_humidity;BME280_pressure;Samples;Min_cycle;Max_cycle;Signal;HPM_P1;HPM_P2
2021/06/08 00:02:07;;;;;;;9.07;0.35;;;;;;;19.80;42.01;101213.13;5075449;28;20038;-31
2021/06/08 00:04:34;;;;;;;2.72;0.65;;;;;;;19.79;42.22;101206.03;5075274;28;20029;-31
2021/06/08 00:07:00;;;;;;;1.20;0.97;;;;;;;19.78;42.02;101213.13;5075330;28;20016;-31
2021/06/08 00:09:26;;;;;;;9.53;1.27;;;;;;;19.87;41.95;101209.47;5075188;28;20450;-31
2021/06/08 00:11:52;;;;;;;3.05;0.45;;;;;;;19.87;41.80;101205.03;5075153;28;20097;-31
2021/06/08 00:14:18;;;;;;;0.93;0.55;;;;;;;19.90;41.92;101214.72;5075000;28;20401;-31
2021/06/08 00:16:44;;;;;;;5.73;0.10;;;;;;;19.88;41.89;101214.72;5075153;28;20017;-31
2021/06/08 00:19:26;;;;;;;0.20;0.20;;;;;;;19.99;41.79;101216.34;5041566;28;20178;-31
2021/06/08 00:21:52;;;;;;;1.35;0.45;;;;;;;19.83;42.07;101224.53;5061255;28;20048;-30
2021/06/08 00:24:18;;;;;;;0.35;0.35;;;;;;;19.94;41.96;101224.38;5054772;28;20033;-30
2021/06/08 00:26:44;;;;;;;0.00;0.00;;;;;;;19.95;41.84;101227.00;5061584;28;20442;-31
2021/06/08 00:29:11;;;;;;;0.00;0.00;;;;;;;19.93;41.95;101218.19;5058111;28;20029;-31
2021/06/08 00:31:37;;;;;;;0.67;0.23;;;;;;;19.81;40.44;101217.50;5057793;28;20111;-31
2021/06/08 00:34:03;;;;;;;0.57;0.25;;;;;;;19.72;38.92;101212.34;5066014;28;20029;-31
2021/06/08 00:36:29;;;;;;;12.27;1.13;;;;;;;19.53;39.57;101209.91;5071520;28;20358;-32
2021/06/08 00:38:55;;;;;;;2.00;0.30;;;;;;;19.38;39.03;101213.66;5073156;28;20099;-32
2021/06/08 00:41:38;;;;;;;0.17;0.17;;;;;;;19.45;39.22;101209.13;5073709;28;20024;-30
2021/06/08 00:44:08;;;;;;;2.85;0.20;;;;;;;19.57;39.26;101218.72;5072474;28;20029;-31
2021/06/08 00:46:35;;;;;;;0.00;0.00;;;;;;;19.62;39.52;101214.25;5074221;28;20085;-32
2021/06/08 00:49:01;;;;;;;6.33;0.80;;;;;;;19.72;40.17;101220.28;5070184;28;20032;-31
2021/06/08 00:51:27;;;;;;;7.25;0.10;;;;;;;19.68;40.43;101220.31;5062386;28;20112;-31
2021/06/08 00:53:53;;;;;;;1.80;0.50;;;;;;;19.74;40.47;101221.13;5071109;28;20024;-32
2021/06/08 00:56:19;;;;;;;26.77;0.88;;;;;;;19.79;40.65;101232.53;5073429;28;20020;-31
2021/06/08 00:58:46;;;;;;;0.32;0.13;;;;;;;19.86;40.54;101205.94;5069016;28;20463;-33
2021/06/08 01:01:13;;;;;;;1.75;0.40;;;;;;;19.98;40.57;101215.47;5069171;28;20036;-30
2021/06/08 01:03:39;;;;;;;0.57;0.57;;;;;;;19.95;40.46;101202.28;5070197;28;20086;-32
2021/06/08 01:06:05;;;;;;;3.27;0.43;;;;;;;20.03;40.64;101204.78;5070191;28;20470;-31
2021/06/08 01:08:31;;;;;;;9.25;0.30;;;;;;;20.00;40.61;101202.19;5063957;28;20354;-31
2021/06/08 01:10:57;;;;;;;1.17;0.43;;;;;;;20.09;40.43;101208.22;5064282;28;20032;-33
2021/06/08 01:13:26;;;;;;;0.10;0.10;;;;;;;19.99;40.59;101196.03;5059968;28;20048;-31
2021/06/08 01:15:53;;;;;;;0.10;0.10;;;;;;;20.07;40.52;101207.38;5054133;28;20020;-31
2021/06/08 01:18:19;;;;;;;0.63;0.40;;;;;;;20.06;40.67;101197.66;5066675;28;20060;-33
2021/06/08 01:20:45;;;;;;;0.93;0.10;;;;;;;20.09;40.85;101204.72;5074498;28;20362;-30
2021/06/08 01:23:11;;;;;;;3.43;0.57;;;;;;;20.10;40.87;101203.81;5070245;28;20087;-31
2021/06/08 01:25:37;;;;;;;0.20;0.20;;;;;;;20.11;40.79;101205.53;5059335;28;20025;-31
2021/06/08 01:28:04;;;;;;;1.20;0.30;;;;;;;20.00;41.10;101203.06;5072240;28;20024;-30
2021/06/08 01:30:30;;;;;;;1.75;0.77;;;;;;;20.08;40.98;101203.84;5070299;28;20478;-31
2021/06/08 01:32:56;;;;;;;0.47;0.47;;;;;;;19.96;40.91;101204.00;5052892;28;20036;-34
2021/06/08 01:35:22;;;;;;;0.00;0.00;;;;;;;19.95;40.94;101204.94;5066148;28;20024;-31
2021/06/08 01:37:49;;;;;;;2.17;0.43;;;;;;;19.66;41.29;101177.09;5058758;28;20462;-30
2021/06/08 01:40:16;;;;;;;5.90;0.68;;;;;;;19.91;40.99;101203.22;5057653;28;20273;-33
2021/06/08 01:42:42;;;;;;;0.30;0.10;;;;;;;19.85;41.14;101208.63;5057240;28;20024;-31
2021/06/08 01:45:09;;;;;;;0.17;0.17;;;;;;;19.84;41.39;101205.06;5053606;28;20017;-31
2021/06/08 01:47:35;;;;;;;3.45;1.05;;;;;;;19.85;41.49;101209.50;5063643;28;20059;-31
2021/06/08 01:50:02;;;;;;;0.20;0.20;;;;;;;19.86;41.20;101207.72;5062120;28;20033;-31
2021/06/08 01:52:49;;;;;;;0.05;0.05;;;;;;;19.87;41.32;101214.75;5061237;28;20028;-30
2021/06/08 01:55:30;;;;;;;0.38;0.38;;;;;;;19.86;41.04;101213.00;5071540;28;20099;-32
2021/06/08 01:58:09;;;;;;;3.75;0.20;;;;;;;19.81;41.03;101217.50;5062226;28;20051;-31
2021/06/08 02:01:21;;;;;;;2.28;1.42;;;;;;;19.78;41.12;101215.78;5069046;28;20548;-31
2021/06/08 02:04:11;;;;;;;0.20;0.20;;;;;;;19.82;41.56;101212.19;5056100;28;20040;-31
2021/06/08 02:06:47;;;;;;;0.10;0.10;;;;;;;19.75;41.48;101210.53;5057442;28;20029;-32
2021/06/08 02:09:44;;;;;;;0.00;0.00;;;;;;;19.82;41.63;101228.09;5071114;28;20311;-31
2021/06/08 02:12:15;;;;;;;8.68;0.30;;;;;;;19.80;41.17;101235.19;5051668;28;20048;-30
2021/06/08 02:14:50;;;;;;;0.52;0.25;;;;;;;19.80;40.97;101232.53;5065329;28;20024;-31
2021/06/08 02:17:48;;;;;;;0.35;0.35;;;;;;;19.83;41.16;101234.25;5072532;28;20058;-31
2021/06/08 02:20:18;;;;;;;0.15;0.15;;;;;;;19.80;41.10;101236.97;5062411;28;20043;-31
2021/06/08 02:22:45;;;;;;;0.57;0.30;;;;;;;19.72;41.38;101242.38;5076324;28;20021;-30
2021/06/08 02:25:11;;;;;;;;;;;;;;;19.72;41.40;101231.78;5059157;28;20078;-32
2021/06/08 02:27:38;;;;;;;0.05;0.05;;;;;;;19.73;41.24;101233.50;5076637;28;19920;-31
2021/06/08 02:30:04;;;;;;;0.00;0.00;;;;;;;19.77;41.38;101234.34;5069584;28;20041;-31
2021/06/08 02:32:31;;;;;;;0.13;0.10;;;;;;;19.80;41.18;101236.97;5074776;28;20039;-31
2021/06/08 02:35:00;;;;;;;0.20;0.10;;;;;;;19.67;41.36;101230.97;5069928;28;20031;-31
2021/06/08 02:37:26;;;;;;;0.65;0.35;;;;;;;19.65;41.37;101244.25;5077813;28;20016;-30
2021/06/08 02:39:53;;;;;;;0.43;0.10;;;;;;;19.63;41.91;101230.13;5067966;28;20034;-31
2021/06/08 02:42:19;;;;;;;1.25;0.10;;;;;;;19.68;41.41;101252.13;5075805;28;20028;-31
2021/06/08 02:44:46;;;;;;;0.07;0.07;;;;;;;19.68;41.42;101249.47;5068665;28;20032;-30
2021/06/08 02:47:13;;;;;;;11.13;1.00;;;;;;;19.63;41.33;101232.78;5076658;28;20107;-31
2021/06/08 02:49:39;;;;;;;7.85;0.75;;;;;;;19.73;41.39;101243.25;5057363;28;20032;-31
2021/06/08 02:52:06;;;;;;;1.35;0.60;;;;;;;19.65;41.53;101246.91;5077954;28;20089;-33
2021/06/08 02:54:32;;;;;;;1.10;0.70;;;;;;;19.67;41.47;101244.22;5066088;28;20037;-31
2021/06/08 02:56:58;;;;;;;0.52;0.52;;;;;;;19.58;41.44;101242.53;5069352;28;20047;-31
2021/06/08 02:59:26;;;;;;;0.47;0.30;;;;;;;19.58;41.64;101239.88;5075061;28;20021;-32
2021/06/08 03:01:53;;;;;;;2.88;0.98;;;;;;;19.63;41.56;101229.25;5075271;28;20017;-32
2021/06/08 03:04:21;;;;;;;2.42;0.50;;;;;;;19.62;41.58;101231.03;5062997;28;20466;-32
2021/06/08 03:06:57;;;;;;;1.77;0.93;;;;;;;19.67;41.55;101239.78;5057721;28;20101;-30
2021/06/08 03:09:46;;;;;;;2.53;0.47;;;;;;;19.49;41.66;101221.44;5088439;28;20094;-33
2021/06/08 03:12:14;;;;;;;0.22;0.20;;;;;;;19.57;41.42;101227.53;5092896;28;20020;-31
2021/06/08 03:14:42;;;;;;;0.55;0.55;;;;;;;19.51;41.79;101219.63;5081956;28;20081;-31
2021/06/08 03:17:08;;;;;;;0.10;0.10;;;;;;;19.55;41.61;101228.44;5044126;28;20033;-31
2021/06/08 03:19:35;;;;;;;2.17;0.75;;;;;;;19.49;41.48;101218.78;5076539;28;20028;-32
2021/06/08 03:22:08;;;;;;;1.85;1.08;;;;;;;19.51;41.66;101217.00;5056531;28;20097;-32
2021/06/08 03:24:36;;;;;;;0.40;0.40;;;;;;;19.49;41.67;101225.88;5068897;28;20036;-32
2021/06/08 03:27:02;;;;;;;0.32;0.32;;;;;;;19.50;41.59;101217.03;5078589;28;20376;-31
2021/06/08 03:29:30;;;;;;;3.40;0.95;;;;;;;19.53;41.60;101225.81;5079216;28;20161;-31
2021/06/08 03:31:56;;;;;;;0.10;0.10;;;;;;;19.55;41.39;101229.31;5074982;28;20085;-31
2021/06/08 03:34:22;;;;;;;0.13;0.03;;;;;;;19.51;41.85;101222.28;5058638;28;20039;-32
2021/06/08 03:36:54;;;;;;;1.30;0.43;;;;;;;19.57;41.82;101226.66;5077013;28;20028;-33
2021/06/08 03:39:21;;;;;;;3.78;1.38;;;;;;;19.45;42.00;101225.03;5056984;28;20028;-30
2021/06/08 03:41:47;;;;;;;8.60;0.85;;;;;;;19.43;42.19;101224.19;5068916;28;20056;-31
2021/06/08 03:44:17;;;;;;;0.52;0.47;;;;;;;19.38;42.16;101237.50;5055771;28;20561;-30
2021/06/08 03:46:49;;;;;;;6.03;1.23;;;;;;;19.39;41.73;101239.25;5070964;28;20395;-30
2021/06/08 03:49:17;;;;;;;8.38;0.32;;;;;;;19.41;41.75;101228.59;5073667;28;20028;-32
2021/06/08 03:51:44;;;;;;;0.15;0.13;;;;;;;19.32;41.76;101203.13;5077499;28;20031;-31
2021/06/08 03:54:11;;;;;;;4.17;0.77;;;;;;;19.48;41.90;101232.94;5056416;28;20641;-31
2021/06/08 03:56:37;;;;;;;;;;;;;;;19.45;42.01;101225.91;5078757;28;20043;-31
2021/06/08 03:59:03;;;;;;;2.72;0.90;;;;;;;19.38;42.22;101226.03;5074700;28;20405;-31
2021/06/08 04:01:32;;;;;;;1.77;1.40;;;;;;;19.37;42.26;101219.84;5073384;28;20028;-32
2021/06/08 04:03:58;;;;;;;13.70;0.35;;;;;;;19.33;42.19;101227.84;5071559;28;20032;-32
2021/06/08 04:06:24;;;;;;;0.30;0.30;;;;;;;19.36;42.21;101219.84;5060501;28;20020;-32
2021/06/08 04:08:51;;;;;;;0.20;0.20;;;;;;;19.35;42.06;101224.28;5068938;28;20469;-31
2021/06/08 04:11:18;;;;;;;0.30;0.23;;;;;;;19.34;42.05;101235.78;5058661;28;20112;-31
2021/06/08 04:13:44;;;;;;;1.55;0.45;;;;;;;19.36;42.00;101236.63;5073691;28;20033;-32
2021/06/08 04:16:11;;;;;;;3.37;0.57;;;;;;;19.34;41.93;101221.66;5066129;28;20133;-31
2021/06/08 04:18:38;;;;;;;0.50;0.50;;;;;;;19.35;42.18;101218.09;5078695;28;20047;-32
2021/06/08 04:21:04;;;;;;;2.72;0.32;;;;;;;19.36;42.17;101226.03;5072564;28;20262;-31
2021/06/08 04:23:31;;;;;;;0.00;0.00;;;;;;;19.28;42.37;101225.25;5073715;28;20024;-31
2021/06/08 04:25:57;;;;;;;0.40;0.20;;;;;;;19.32;42.07;101236.66;5070899;28;20039;-31
2021/06/08 04:28:24;;;;;;;2.08;0.73;;;;;;;19.29;42.25;101240.25;5073929;28;20098;-31
2021/06/08 04:30:51;;;;;;;3.85;0.52;;;;;;;19.29;42.32;101244.69;5059750;28;20025;-31
2021/06/08 04:33:24;;;;;;;1.45;1.35;;;;;;;19.24;42.27;101239.44;5067879;28;20477;-31
2021/06/08 04:35:50;;;;;;;1.08;0.40;;;;;;;19.27;42.30;101238.50;5083537;28;20446;-31
2021/06/08 04:38:17;;;;;;;0.00;0.00;;;;;;;19.30;42.25;101244.66;5072193;28;20520;-31
2021/06/08 04:40:43;;;;;;;1.85;0.65;;;;;;;19.29;42.35;101253.50;5066591;28;20269;-30
2021/06/08 04:43:10;;;;;;;1.23;0.70;;;;;;;19.33;42.12;101249.06;5072171;28;20025;-32
2021/06/08 04:45:36;;;;;;;0.13;0.13;;;;;;;19.32;42.37;101252.56;5066577;28;20024;-31
2021/06/08 04:48:02;;;;;;;0.23;0.20;;;;;;;19.24;42.29;101249.16;5053721;28;20025;-31
2021/06/08 04:50:28;;;;;;;7.20;0.60;;;;;;;19.26;42.39;101242.94;5054082;28;20349;-30
2021/06/08 04:52:57;;;;;;;1.58;0.80;;;;;;;19.26;42.35;101257.94;5054183;28;20087;-31
2021/06/08 04:55:25;;;;;;;1.17;0.30;;;;;;;19.21;42.24;101260.66;5053960;28;20029;-30
2021/06/08 04:57:52;;;;;;;0.00;0.00;;;;;;;19.17;42.67;101259.78;5053949;28;20071;-32
2021/06/08 05:00:18;;;;;;;;;;;;;;;19.24;42.42;101262.41;5058631;28;20086;-32
2021/06/08 05:03:00;;;;;;;0.65;0.20;;;;;;;19.19;42.24;101252.72;5090911;28;19995;-32
2021/06/08 05:05:27;;;;;;;0.55;0.22;;;;;;;19.20;42.41;101264.19;5086585;28;20077;-31
2021/06/08 05:08:13;;;;;;;0.10;0.10;;;;;;;19.21;42.42;101265.94;5071504;28;20431;-31
2021/06/08 05:10:46;;;;;;;2.30;0.28;;;;;;;19.24;42.29;101265.06;5050699;28;20043;-33
2021/06/08 05:13:13;;;;;;;0.10;0.10;;;;;;;19.17;42.48;101273.03;5055805;28;20028;-30
2021/06/08 05:15:39;;;;;;;4.18;0.30;;;;;;;19.14;42.59;101269.56;5074157;28;20025;-31
2021/06/08 05:18:06;;;;;;;0.80;0.20;;;;;;;19.16;42.56;101283.66;5056327;28;20017;-31
2021/06/08 05:20:33;;;;;;;11.18;0.30;;;;;;;19.20;42.69;101282.75;5092223;28;20028;-31
2021/06/08 05:22:59;;;;;;;1.98;0.65;;;;;;;19.05;42.51;101273.19;5076175;28;20039;-32
2021/06/08 05:25:29;;;;;;;0.28;0.10;;;;;;;19.19;42.53;101294.22;5048519;28;20028;-32
2021/06/08 05:27:55;;;;;;;0.00;0.00;;;;;;;19.16;42.68;101296.91;5066918;28;20050;-31
2021/06/08 05:30:22;;;;;;;0.00;0.00;;;;;;;19.22;42.58;101303.91;5073773;28;20128;-30
2021/06/08 05:32:48;;;;;;;1.65;0.10;;;;;;;19.22;42.40;101304.78;5063190;28;20423;-34
2021/06/08 05:35:14;;;;;;;1.47;0.93;;;;;;;19.19;42.68;101303.06;5079127;28;20123;-30
2021/06/08 05:37:42;;;;;;;2.17;0.75;;;;;;;19.15;42.58;101311.03;5077362;28;20087;-30
2021/06/08 05:40:09;;;;;;;0.77;0.55;;;;;;;19.14;42.76;101311.94;5066524;28;20496;-31
2021/06/08 05:42:35;;;;;;;4.60;0.10;;;;;;;19.10;42.59;101313.75;5079097;28;20342;-30
2021/06/08 05:45:01;;;;;;;9.07;0.77;;;;;;;19.11;42.63;101319.91;5062531;28;20122;-31
2021/06/08 05:47:28;;;;;;;0.20;0.20;;;;;;;19.13;42.62;101312.81;5060114;28;20029;-31
2021/06/08 05:49:54;;;;;;;6.00;1.03;;;;;;;19.08;42.75;101318.16;5074818;28;20044;-30
2021/06/08 05:52:20;;;;;;;2.23;0.57;;;;;;;19.15;42.80;101321.63;5063881;28;20029;-32
2021/06/08 05:54:46;;;;;;;1.25;0.47;;;;;;;19.17;42.74;101315.41;5068680;28;20021;-31
2021/06/08 05:57:13;;;;;;;0.67;0.30;;;;;;;19.20;42.55;101311.88;5058538;28;20032;-31
2021/06/08 05:59:39;;;;;;;0.55;0.52;;;;;;;19.18;42.67;101311.91;5062629;28;20420;-31
2021/06/08 06:02:05;;;;;;;0.43;0.30;;;;;;;19.14;42.80;101312.81;5076854;28;20036;-31
2021/06/08 06:04:31;;;;;;;0.28;0.15;;;;;;;19.10;42.79;101316.38;5066356;28;20036;-31
2021/06/08 06:06:58;;;;;;;0.10;0.10;;;;;;;19.12;42.58;101311.94;5068014;28;20029;-31
2021/06/08 06:09:25;;;;;;;0.00;0.00;;;;;;;19.07;42.74;101316.41;5074187;28;20052;-32
2021/06/08 06:11:53;;;;;;;0.13;0.13;;;;;;;19.08;42.85;101315.50;5063258;28;20450;-30
2021/06/08 06:14:22;;;;;;;1.50;0.13;;;;;;;19.07;42.67;101311.09;5068119;28;20055;-31
2021/06/08 06:16:52;;;;;;;4.03;0.60;;;;;;;19.11;42.76;101322.56;5059857;28;20409;-31
2021/06/08 06:19:18;;;;;;;0.00;0.00;;;;;;;19.12;42.69;101324.31;5068077;28;20057;-30
2021/06/08 06:21:45;;;;;;;0.00;0.00;;;;;;;19.13;42.76;101332.25;5065373;28;20021;-31
2021/06/08 06:24:12;;;;;;;0.10;0.10;;;;;;;19.15;42.81;101329.59;5063844;28;20036;-31
2021/06/08 06:26:39;;;;;;;;;;;;;;;19.09;42.78;101333.19;5060020;28;20029;-31
2021/06/08 06:29:05;;;;;;;0.20;0.15;;;;;;;18.99;42.98;101335.91;5078480;28;19923;-31
2021/06/08 06:31:32;;;;;;;0.00;0.00;;;;;;;18.99;43.01;101336.81;5064207;28;20047;-30
2021/06/08 06:33:58;;;;;;;2.17;1.35;;;;;;;18.98;43.07;101334.16;5067396;28;20047;-31
2021/06/08 06:36:29;;;;;;;0.77;0.43;;;;;;;18.98;42.98;101340.31;5062557;28;20025;-31
2021/06/08 06:38:58;;;;;;;0.00;0.00;;;;;;;19.00;42.98;101341.22;5065069;28;20450;-32
2021/06/08 06:41:24;;;;;;;0.10;0.10;;;;;;;18.98;43.07;101342.09;5056335;28;20044;-31
2021/06/08 06:43:54;;;;;;;0.17;0.17;;;;;;;18.94;42.95;101320.06;5068712;28;20095;-31
2021/06/08 06:46:22;;;;;;;0.00;0.00;;;;;;;18.99;42.77;101326.22;5045986;28;20039;-31
2021/06/08 06:48:51;;;;;;;;;;;;;;;19.08;43.01;101349.94;5071183;28;20028;-31
2021/06/08 06:51:17;;;;;;;0.00;0.00;;;;;;;19.04;42.84;101345.59;5071283;28;19919;-33
2021/06/08 06:53:43;;;;;;;0.00;0.00;;;;;;;18.96;43.25;101336.81;5065865;28;20431;-32
2021/06/08 06:56:09;;;;;;;1.90;0.55;;;;;;;18.94;43.21;101341.25;5064135;28;20032;-31
2021/06/08 06:58:36;;;;;;;0.00;0.00;;;;;;;18.99;43.13;101343.84;5063654;28;20033;-31
2021/06/08 07:01:02;;;;;;;2.70;0.10;;;;;;;18.98;43.09;101342.09;5063640;28;20442;-32
2021/06/08 07:03:32;;;;;;;0.00;0.00;;;;;;;18.95;43.04;101344.78;5060800;28;20070;-31
2021/06/08 07:05:58;;;;;;;0.63;0.38;;;;;;;18.92;43.13;101343.03;5062234;28;20478;-31
2021/06/08 07:08:25;;;;;;;0.60;0.43;;;;;;;18.78;43.03;101324.63;5063965;28;20446;-31
2021/06/08 07:10:55;;;;;;;0.90;0.35;;;;;;;18.99;43.06;101347.41;5056452;28;20513;-31
2021/06/08 07:13:21;;;;;;;0.03;0.03;;;;;;;18.93;42.84;101336.84;5068365;28;20032;-31
2021/06/08 07:15:48;;;;;;;1.13;0.30;;;;;;;19.02;43.09;101346.47;5062489;28;20024;-32
2021/06/08 07:18:14;;;;;;;0.32;0.20;;;;;;;18.88;43.16;101342.19;5062608;28;20347;-31
2021/06/08 07:20:41;;;;;;;0.10;0.10;;;;;;;18.89;43.18;101353.66;5060987;28;20117;-31
2021/06/08 07:23:07;;;;;;;4.45;1.60;;;;;;;18.87;43.19;101352.78;5072717;28;20028;-31
2021/06/08 07:25:36;;;;;;;1.80;0.22;;;;;;;18.87;43.30;101351.03;5070829;28;20060;-31
2021/06/08 07:28:03;;;;;;;0.30;0.30;;;;;;;18.85;43.35;101347.53;5054696;28;20065;-31
2021/06/08 07:30:29;;;;;;;0.00;0.00;;;;;;;18.83;43.42;101349.28;5063166;28;20404;-30
2021/06/08 07:33:34;;;;;;;4.13;0.10;;;;;;;18.85;43.14;101351.94;5064013;28;20033;-32
2021/06/08 07:36:27;;;;;;;0.47;0.25;;;;;;;18.90;43.15;101352.78;5073214;28;20374;-31
2021/06/08 07:39:04;;;;;;;0.73;0.10;;;;;;;18.91;43.16;101355.41;5059541;28;20036;-30
2021/06/08 07:41:43;;;;;;;0.45;0.30;;;;;;;18.91;43.06;101354.53;5042089;28;20024;-30
2021/06/08 07:44:33;;;;;;;0.80;0.20;;;;;;;18.82;43.44;101355.47;5038113;28;20025;-31
2021/06/08 07:47:02;;;;;;;0.00;0.00;;;;;;;18.76;43.44;101354.66;5054673;28;20033;-32
2021/06/08 07:49:28;;;;;;;0.10;0.10;;;;;;;18.80;43.64;101364.31;5059770;28;20029;-32
2021/06/08 07:51:54;;;;;;;7.07;0.30;;;;;;;18.75;43.66;101363.47;5055106;28;20039;-31
2021/06/08 07:54:24;;;;;;;0.37;0.13;;;;;;;18.74;43.61;101361.72;5080698;28;20032;-30
2021/06/08 07:56:51;;;;;;;1.40;0.13;;;;;;;18.80;43.77;101361.66;5063819;28;20048;-31
2021/06/08 07:59:18;;;;;;;0.00;0.00;;;;;;;18.78;43.57;101360.81;5059156;28;20048;-31
2021/06/08 08:01:44;;;;;;;0.80;0.25;;;;;;;18.84;43.31;101356.31;5064301;28;20111;-32
2021/06/08 08:04:18;;;;;;;0.40;0.40;;;;;;;18.83;43.40;101359.88;5064199;28;20237;-32
2021/06/08 08:06:45;;;;;;;0.10;0.10;;;;;;;18.85;43.38;101365.19;5054839;28;20389;-30
2021/06/08 08:09:11;;;;;;;0.00;0.00;;;;;;;18.78;43.65;101369.63;5069896;28;20039;-31
2021/06/08 08:11:41;;;;;;;0.80;0.50;;;;;;;18.81;43.61;101360.78;5071733;28;20340;-32
2021/06/08 08:14:07;;;;;;;0.38;0.08;;;;;;;18.80;43.84;101366.94;5044338;28;20036;-34
2021/06/08 08:16:33;;;;;;;0.47;0.25;;;;;;;18.75;43.64;101361.69;5054184;28;20036;-30
2021/06/08 08:19:00;;;;;;;0.70;0.25;;;;;;;18.78;43.65;101363.47;5066664;28;20032;-30
2021/06/08 08:21:26;;;;;;;0.20;0.20;;;;;;;18.72;43.97;101368.81;5069190;28;20044;-32
2021/06/08 08:23:52;;;;;;;0.28;0.22;;;;;;;18.70;43.82;101374.09;5071164;28;20463;-31
2021/06/08 08:26:18;;;;;;;0.30;0.20;;;;;;;18.77;43.63;101375.81;5074686;28;20036;-30
2021/06/08 08:28:47;;;;;;;0.00;0.00;;;;;;;18.78;43.38;101366.09;5070924;28;20099;-35
2021/06/08 08:31:18;;;;;;;1.60;0.50;;;;;;;18.78;43.50;101371.41;5054227;28;20028;-31
2021/06/08 08:33:47;;;;;;;1.80;0.20;;;;;;;18.75;43.62;101371.41;5060442;28;20058;-31
2021/06/08 08:36:14;;;;;;;5.88;0.20;;;;;;;18.74;43.89;101372.31;5057492;28;20364;-32
2021/06/08 08:38:40;;;;;;;0.57;0.05;;;;;;;18.67;43.86;101369.69;5059019;28;20031;-31
2021/06/08 08:41:06;;;;;;;0.00;0.00;;;;;;;18.74;43.73;101377.59;5056905;28;20032;-31
2021/06/08 08:43:33;;;;;;;1.17;0.75;;;;;;;18.71;43.79;101378.53;5057020;28;20032;-32
2021/06/08 08:45:59;;;;;;;0.00;0.00;;;;;;;18.73;43.71;101370.56;5071202;28;20036;-33
2021/06/08 08:48:25;;;;;;;1.25;0.55;;;;;;;18.69;43.77;101372.34;5067123;28;20024;-31
2021/06/08 08:50:51;;;;;;;1.30;0.57;;;;;;;18.67;43.77;101369.69;5054177;28;20017;-30
2021/06/08 08:53:21;;;;;;;0.00;0.00;;;;;;;18.76;43.66;101374.06;5054815;28;20025;-31
2021/06/08 08:55:47;;;;;;;4.20;0.75;;;;;;;18.72;43.46;101372.31;5054134;28;20025;-32
2021/06/08 08:58:15;;;;;;;2.63;0.47;;;;;;;18.73;43.60;101371.44;5056138;28;20421;-31
2021/06/08 09:00:45;;;;;;;0.28;0.28;;;;;;;18.70;43.81;101378.50;5055807;28;20017;-33
2021/06/08 09:03:14;;;;;;;0.75;0.65;;;;;;;18.67;43.79;101371.44;5061482;28;20035;-30
2021/06/08 09:05:41;;;;;;;0.52;0.32;;;;;;;18.65;43.77;101374.09;5070258;28;20037;-31
2021/06/08 09:08:08;;;;;;;1.20;0.15;;;;;;;18.72;43.63;101371.44;5059166;28;20036;-31
2021/06/08 09:10:35;;;;;;;0.28;0.28;;;;;;;18.67;43.96;101368.81;5053872;28;20075;-31
2021/06/08 09:13:02;;;;;;;5.97;1.05;;;;;;;18.66;43.70;101373.22;5057288;28;20040;-31
2021/06/08 09:15:28;;;;;;;0.45;0.45;;;;;;;18.56;44.02;101368.91;5068145;28;20082;-33
2021/06/08 09:17:58;;;;;;;0.13;0.13;;;;;;;18.63;43.77;101367.06;5068747;28;20042;-32
2021/06/08 09:20:24;;;;;;;0.05;0.05;;;;;;;18.63;43.61;101370.59;5063339;28;20423;-32
2021/06/08 09:23:01;;;;;;;0.28;0.17;;;;;;;18.64;43.49;101371.47;5062195;28;20024;-31
2021/06/08 09:25:41;;;;;;;1.08;0.43;;;;;;;18.62;43.64;101374.13;5057855;28;20032;-31
2021/06/08 09:28:22;;;;;;;0.35;0.35;;;;;;;18.60;43.86;101372.38;5060804;28;20383;-30
2021/06/08 09:30:56;;;;;;;2.08;0.13;;;;;;;18.58;43.86;101374.16;5064850;28;20450;-31
2021/06/08 09:33:24;;;;;;;1.48;0.17;;;;;;;18.61;43.71;101367.09;5064896;28;20096;-32
2021/06/08 09:35:56;;;;;;;0.00;0.00;;;;;;;18.62;43.65;101367.97;5052470;28;20020;-31
2021/06/08 09:38:22;;;;;;;0.22;0.10;;;;;;;18.76;43.30;101367.91;5061733;28;20025;-31
2021/06/08 09:40:48;;;;;;;0.00;0.00;;;;;;;18.56;43.84;101370.63;5052880;28;20050;-31
2021/06/08 09:43:15;;;;;;;4.45;0.95;;;;;;;18.55;43.90;101367.13;5068153;28;20175;-30
2021/06/08 09:45:49;;;;;;;1.35;0.30;;;;;;;18.58;43.47;101371.53;5053504;28;20033;-32
2021/06/08 09:48:15;;;;;;;0.10;0.10;;;;;;;18.56;43.50;101368.91;5053643;28;20051;-31
2021/06/08 09:50:46;;;;;;;0.00;0.00;;;;;;;18.56;43.79;101366.25;5059286;28;20031;-33
2021/06/08 09:53:28;;;;;;;1.75;0.43;;;;;;;18.51;43.84;101372.44;5053168;28;20099;-30
2021/06/08 09:56:03;;;;;;;0.00;0.00;;;;;;;18.50;43.77;101370.69;5057556;28;20024;-34
2021/06/08 09:58:29;;;;;;;0.00;0.00;;;;;;;18.52;43.78;101364.50;5055870;28;20416;-31
2021/06/08 10:01:20;;;;;;;1.65;0.25;;;;;;;18.49;43.91;101367.16;5060349;28;20055;-34
2021/06/08 10:03:54;;;;;;;1.98;0.22;;;;;;;18.49;43.80;101371.59;5059162;28;20024;-32
2021/06/08 10:06:25;;;;;;;0.30;0.10;;;;;;;18.51;43.78;101372.44;5065132;28;20029;-31
2021/06/08 10:08:58;;;;;;;2.03;0.50;;;;;;;18.46;43.69;101368.94;5067406;28;20024;-31
2021/06/08 10:11:32;;;;;;;0.38;0.38;;;;;;;18.49;43.66;101369.81;5064371;28;20025;-30
2021/06/08 10:14:18;;;;;;;0.15;0.10;;;;;;;18.50;43.66;101368.91;5057976;28;20037;-31
2021/06/08 10:16:44;;;;;;;0.00;0.00;;;;;;;18.48;43.69;101370.72;5056889;28;20067;-31
2021/06/08 10:19:12;;;;;;;0.00;0.00;;;;;;;18.46;43.93;101371.59;5067441;28;20021;-33
2021/06/08 10:21:37;;;;;;;;;;;;;;;18.38;43.92;101377.81;5066750;28;20032;-34
2021/06/08 10:24:11;;;;;;;0.10;0.10;;;;;;;18.48;43.68;101376.00;5057535;28;19919;-31
2021/06/08 10:26:39;;;;;;;0.45;0.17;;;;;;;18.61;43.56;101376.78;5064643;28;20116;-31
2021/06/08 10:29:10;;;;;;;0.15;0.15;;;;;;;18.47;43.76;101375.97;5061917;28;20060;-31
2021/06/08 10:31:42;;;;;;;0.00;0.00;;;;;;;18.53;43.69;101383.91;5062513;28;20490;-30
2021/06/08 10:34:08;;;;;;;0.30;0.30;;;;;;;18.33;43.83;101381.41;5062559;28;20051;-32
2021/06/08 10:36:35;;;;;;;0.00;0.00;;;;;;;18.41;43.76;101382.19;5065900;28;20458;-34
2021/06/08 10:39:07;;;;;;;0.35;0.20;;;;;;;18.40;43.66;101378.69;5065633;28;20024;-31
2021/06/08 10:41:35;;;;;;;1.73;0.43;;;;;;;18.52;43.55;101379.50;5068322;28;20353;-31
2021/06/08 10:44:02;;;;;;;0.00;0.00;;;;;;;18.37;44.05;101375.16;5070991;28;20031;-32
2021/06/08 10:46:32;;;;;;;0.22;0.22;;;;;;;18.45;43.85;101376.00;5070346;28;20104;-31
2021/06/08 10:48:58;;;;;;;0.03;0.03;;;;;;;18.37;43.65;101368.16;5068065;28;20427;-31
2021/06/08 10:51:24;;;;;;;0.00;0.00;;;;;;;18.56;43.51;101384.78;5052608;28;20029;-31
2021/06/08 10:53:56;;;;;;;0.00;0.00;;;;;;;18.48;43.65;101386.59;5059518;28;20028;-30
2021/06/08 10:56:29;;;;;;;0.00;0.00;;;;;;;18.51;43.52;101389.19;5068329;28;20117;-31
2021/06/08 10:59:03;;;;;;;0.00;0.00;;;;;;;18.39;43.78;101392.81;5060044;28;20025;-34
2021/06/08 11:01:40;;;;;;;0.10;0.08;;;;;;;18.36;43.91;101386.66;5064652;28;20029;-31
2021/06/08 11:04:11;;;;;;;0.00;0.00;;;;;;;18.32;43.98;101392.84;5073221;28;20055;-31
2021/06/08 11:06:38;;;;;;;0.10;0.10;;;;;;;18.31;43.98;101386.66;5064544;28;20289;-32
2021/06/08 11:09:08;;;;;;;0.00;0.00;;;;;;;18.32;44.04;101371.69;5064441;28;20143;-31
2021/06/08 11:12:02;;;;;;;0.20;0.00;;;;;;;18.38;43.77;101393.69;5065165;28;20032;-33
2021/06/08 11:17:04;;;;;;;1.98;0.50;;;;;;;18.35;44.10;101396.34;5059845;28;20519;-32
2021/06/08 11:19:49;;;;;;;0.00;0.00;;;;;;;18.45;43.80;101394.53;5055647;28;20090;-32
2021/06/08 11:22:19;;;;;;;2.92;1.08;;;;;;;18.45;43.85;101399.81;5056945;28;21557;-31
2021/06/08 11:24:47;;;;;;;0.65;0.10;;;;;;;18.33;43.96;101402.56;5063236;28;20043;-31
2021/06/08 11:27:13;;;;;;;0.03;0.03;;;;;;;18.29;44.15;101401.69;5058146;28;20113;-31
2021/06/08 11:29:58;;;;;;;0.90;0.47;;;;;;;18.27;44.05;101398.16;5055781;28;20036;-30
2021/06/08 11:32:31;;;;;;;2.10;0.52;;;;;;;18.27;44.01;101399.91;5068534;28;20664;-31
2021/06/08 11:35:18;;;;;;;0.65;0.10;;;;;;;18.31;43.90;101396.38;5075573;28;20127;-31
2021/06/08 11:37:47;;;;;;;0.00;0.00;;;;;;;18.39;43.92;101398.09;5072126;28;20032;-31
2021/06/08 11:40:43;;;;;;;0.00;0.00;;;;;;;18.38;44.13;101403.41;5069301;28;20024;-31